Terminal Aerodrome Forecast
Issued by NWS Sterling, VA

Home | Current Version | Previous Version | Text Only | Print | Product List | Glossary On
Versions: 1 2 3 4 5 6 7 8 9 10 11 12 13 14 15 16 17 18 19 20 21
423
FTUS41 KLWX 261721
TAFBWI
TAF
KBWI 261721Z 2618/2724 01005KT P6SM FEW009 BKN013 OVC017
     FM262300 VRB03KT P6SM BKN030
     FM270100 13004KT P6SM SCT250
     FM270600 00000KT 3SM BR SCT040
     FM270900 VRB03KT 2SM BR BKN040
     FM271500 15007KT P6SM SCT250
     FM271800 16011G18KT P6SM SCT050=

USA.gov is the U.S. government's official web portal to all federal, state and local government web resources and services.